createdAt,value
2022-08-19T00:00:28.477Z,12.40
2022-08-19T00:03:06.500Z,11.30
2022-08-19T00:05:35.892Z,12.90
2022-08-19T00:08:04.987Z,11.90
2022-08-19T00:10:35.166Z,11.30
2022-08-19T00:13:05.314Z,11.30
2022-08-19T00:15:34.444Z,11.10
2022-08-19T00:18:03.227Z,11.40
2022-08-19T00:20:32.633Z,11.40
2022-08-19T00:23:01.357Z,12.40
2022-08-19T00:25:30.847Z,15.00
2022-08-19T00:28:00.449Z,12.80
2022-08-19T00:30:29.919Z,12.10
2022-08-19T00:32:59.157Z,12.50
2022-08-19T00:35:28.405Z,12.00
2022-08-19T00:37:57.309Z,11.20
2022-08-19T00:40:26.667Z,10.60
2022-08-19T00:42:55.386Z,11.40
2022-08-19T00:45:29.016Z,11.00
2022-08-19T00:47:57.905Z,11.30
2022-08-19T00:50:26.682Z,11.30
2022-08-19T00:52:56.111Z,11.60
2022-08-19T00:55:29.937Z,11.60
2022-08-19T00:58:05.962Z,10.70
2022-08-19T01:00:38.952Z,11.10
2022-08-19T01:03:14.547Z,12.10
2022-08-19T01:05:46.195Z,12.50
2022-08-19T01:08:18.389Z,12.10
2022-08-19T01:10:55.771Z,12.10
2022-08-19T01:13:29.494Z,11.70
2022-08-19T01:16:21.682Z,11.20
2022-08-19T01:18:51.448Z,11.60
2022-08-19T01:21:35.547Z,11.10
2022-08-19T01:24:05.171Z,12.40
2022-08-19T01:26:42.801Z,11.10
2022-08-19T01:29:13.103Z,12.30
2022-08-19T01:31:41.961Z,12.30
2022-08-19T01:34:11.122Z,11.70
2022-08-19T01:36:46.668Z,11.30
2022-08-19T01:39:23.446Z,13.50
2022-08-19T01:41:56.265Z,11.50
2022-08-19T01:44:25.235Z,11.80
2022-08-19T01:46:54.349Z,12.40
2022-08-19T01:49:26.430Z,12.30
2022-08-19T01:51:55.835Z,13.30
2022-08-19T01:54:27.886Z,12.80
2022-08-19T01:57:09.827Z,13.00
2022-08-19T01:59:40.523Z,13.20
2022-08-19T02:02:09.524Z,13.70
2022-08-19T02:04:39.658Z,12.80
2022-08-19T02:07:09.607Z,13.40
2022-08-19T02:09:39.282Z,14.00
2022-08-19T02:12:09.880Z,12.60
2022-08-19T02:14:38.656Z,13.60
2022-08-19T02:17:07.483Z,13.10
2022-08-19T02:19:36.298Z,13.00
2022-08-19T02:22:08.771Z,12.80
2022-08-19T02:24:37.698Z,13.50
2022-08-19T02:27:06.952Z,13.70
2022-08-19T02:29:35.685Z,12.70
2022-08-19T02:32:05.441Z,12.40
2022-08-19T02:34:35.493Z,12.50
2022-08-19T02:37:04.349Z,13.60
2022-08-19T02:39:33.086Z,13.20
2022-08-19T02:42:03.304Z,13.60
2022-08-19T02:44:32.186Z,13.30
2022-08-19T02:47:01.004Z,12.10
2022-08-19T02:49:29.755Z,13.40
2022-08-19T02:52:04.515Z,13.10
2022-08-19T02:54:33.382Z,13.10
2022-08-19T02:57:02.177Z,13.50
2022-08-19T02:59:32.320Z,12.00
2022-08-19T03:02:01.208Z,12.80
2022-08-19T03:04:30.798Z,13.80
2022-08-19T03:07:07.216Z,14.00
2022-08-19T03:09:40.292Z,15.90
2022-08-19T03:12:11.288Z,14.90
2022-08-19T03:14:40.155Z,13.40
2022-08-19T03:17:09.047Z,13.60
2022-08-19T03:19:39.319Z,13.50
2022-08-19T03:22:09.036Z,13.70
2022-08-19T03:24:39.415Z,14.20
2022-08-19T03:27:08.196Z,14.20
2022-08-19T03:29:43.295Z,13.90
2022-08-19T03:32:24.434Z,13.80
2022-08-19T03:35:02.287Z,24.20
2022-08-19T03:37:31.087Z,15.10
2022-08-19T03:39:59.966Z,14.00
2022-08-19T03:42:38.310Z,13.70
2022-08-19T03:45:18.279Z,14.10
2022-08-19T03:47:46.994Z,12.20
2022-08-19T03:50:16.955Z,13.20
2022-08-19T03:52:51.827Z,15.50
2022-08-19T03:55:20.876Z,14.80
2022-08-19T03:57:50.436Z,14.40
2022-08-19T04:00:19.579Z,14.40
2022-08-19T04:02:58.506Z,14.90
2022-08-19T04:05:30.295Z,14.70
2022-08-19T04:08:00.048Z,14.50
2022-08-19T04:10:29.640Z,14.00
2022-08-19T04:12:58.453Z,14.40
2022-08-19T04:15:28.678Z,15.40
2022-08-19T04:17:57.415Z,14.90
2022-08-19T04:20:26.123Z,16.50
2022-08-19T04:22:55.108Z,15.20
2022-08-19T04:25:24.036Z,16.20
2022-08-19T04:27:52.820Z,15.60
2022-08-19T04:30:23.691Z,15.00
2022-08-19T04:32:52.564Z,15.60
2022-08-19T04:35:24.798Z,15.80
2022-08-19T04:37:53.946Z,16.60
2022-08-19T04:40:41.133Z,15.10
2022-08-19T04:43:16.649Z,15.00
2022-08-19T04:45:46.855Z,15.70
2022-08-19T04:48:26.660Z,16.50
2022-08-19T04:50:59.265Z,16.30
2022-08-19T04:56:17.443Z,15.20
2022-08-19T04:58:46.929Z,15.40
2022-08-19T05:01:21.388Z,14.80
2022-08-19T05:03:51.060Z,15.20
2022-08-19T05:06:22.343Z,14.30
2022-08-19T05:08:51.232Z,14.30
2022-08-19T05:11:29.431Z,14.20
2022-08-19T05:13:58.952Z,13.20
2022-08-19T05:16:28.933Z,14.30
2022-08-19T05:19:16.119Z,13.20
2022-08-19T05:22:04.385Z,13.60
2022-08-19T05:24:35.272Z,12.80
2022-08-19T05:27:06.684Z,12.60
2022-08-19T05:32:09.813Z,12.40
2022-08-19T05:34:39.291Z,13.70
2022-08-19T05:37:09.453Z,14.30
2022-08-19T05:39:39.397Z,12.50
2022-08-19T05:42:11.985Z,13.00
2022-08-19T05:44:48.209Z,12.80
2022-08-19T05:47:19.932Z,12.80
2022-08-19T05:49:51.447Z,12.60
2022-08-19T05:52:25.763Z,13.60
2022-08-19T05:55:05.193Z,12.40
2022-08-19T05:58:00.128Z,13.50
2022-08-19T06:00:53.973Z,14.10
2022-08-19T06:03:50.066Z,15.60
2022-08-19T06:06:45.671Z,14.30
2022-08-19T06:09:43.643Z,12.50
2022-08-19T06:13:01.789Z,12.00
2022-08-19T06:16:42.060Z,11.60
2022-08-19T06:19:31.104Z,12.90
2022-08-19T06:22:19.973Z,12.80
2022-08-19T06:25:30.053Z,13.10
2022-08-19T06:29:11.514Z,12.70
2022-08-19T06:32:30.931Z,11.70
2022-08-19T06:35:15.229Z,11.80
2022-08-19T06:38:03.562Z,11.90
2022-08-19T06:40:35.591Z,12.30
2022-08-19T06:43:10.605Z,11.30
2022-08-19T06:45:43.377Z,10.50
2022-08-19T06:48:31.417Z,10.90
2022-08-19T06:51:08.683Z,10.40
2022-08-19T06:53:40.777Z,11.00
2022-08-19T06:59:32.500Z,10.00
2022-08-19T07:02:14.504Z,9.80
2022-08-19T07:04:52.413Z,10.50
2022-08-19T07:07:34.686Z,10.90
2022-08-19T07:10:36.239Z,9.80
2022-08-19T07:13:14.833Z,9.80
2022-08-19T07:15:52.362Z,9.80
2022-08-19T07:18:41.054Z,10.10
2022-08-19T07:21:31.931Z,9.70
2022-08-19T07:24:10.569Z,9.50
2022-08-19T07:26:45.137Z,10.60
2022-08-19T07:29:28.720Z,9.70
2022-08-19T07:32:17.492Z,9.70
2022-08-19T07:34:57.047Z,9.60
2022-08-19T07:37:33.508Z,10.10
2022-08-19T07:40:12.128Z,10.50
2022-08-19T07:42:51.808Z,10.00
2022-08-19T07:45:39.800Z,8.50
2022-08-19T07:48:20.564Z,9.50
2022-08-19T07:51:36.995Z,10.00
2022-08-19T07:54:08.926Z,10.20
2022-08-19T07:56:43.258Z,8.80
2022-08-19T07:59:48.251Z,9.20
2022-08-19T08:02:26.888Z,9.10
2022-08-19T08:07:00.501Z,9.60
2022-08-19T08:15:59.132Z,8.80
2022-08-19T08:19:20.581Z,10.00
2022-08-19T08:22:26.512Z,8.80
2022-08-19T08:25:27.454Z,9.80
2022-08-19T08:28:31.339Z,8.60
2022-08-19T08:31:20.323Z,8.30
2022-08-19T08:34:00.126Z,9.00
2022-08-19T08:36:40.216Z,9.30
2022-08-19T08:39:24.564Z,8.70
2022-08-19T08:42:17.814Z,9.40
2022-08-19T08:45:16.130Z,9.00
2022-08-19T08:48:01.114Z,8.80
2022-08-19T08:50:45.544Z,8.90
2022-08-19T08:53:47.224Z,8.30
2022-08-19T08:58:20.998Z,8.40
2022-08-19T09:00:51.521Z,7.90
2022-08-19T09:03:33.474Z,8.40
2022-08-19T09:07:01.932Z,8.40
2022-08-19T09:09:53.665Z,8.40
2022-08-19T09:12:59.790Z,8.10
2022-08-19T09:16:12.452Z,8.10
2022-08-19T09:19:09.971Z,8.40
2022-08-19T09:21:48.906Z,8.50
2022-08-19T09:24:48.805Z,7.80
2022-08-19T09:27:43.752Z,7.40
2022-08-19T09:30:49.003Z,7.90
2022-08-19T09:33:31.357Z,7.70
2022-08-19T09:36:42.281Z,6.80
2022-08-19T09:40:07.098Z,7.50
2022-08-19T09:43:10.034Z,7.30
2022-08-19T09:46:03.296Z,7.10
2022-08-19T09:48:38.115Z,7.60
2022-08-19T09:51:19.612Z,7.50
2022-08-19T09:54:11.231Z,7.20
2022-08-19T09:57:09.464Z,6.30
2022-08-19T09:59:44.685Z,6.50
2022-08-19T10:02:22.149Z,7.30
2022-08-19T10:05:14.256Z,7.00
2022-08-19T10:08:13.013Z,7.10
2022-08-19T10:10:48.521Z,6.90
2022-08-19T10:13:33.077Z,7.10
2022-08-19T10:16:33.869Z,6.70
2022-08-19T10:19:11.797Z,6.90
2022-08-19T10:21:46.555Z,7.00
2022-08-19T10:24:27.663Z,6.40
2022-08-19T10:30:13.455Z,6.30
2022-08-19T10:33:11.676Z,6.60
2022-08-19T10:38:52.295Z,6.30
2022-08-19T10:41:42.702Z,6.40
2022-08-19T10:44:16.940Z,5.50
2022-08-19T10:46:56.525Z,5.70
2022-08-19T10:49:33.328Z,5.10
2022-08-19T10:52:38.754Z,5.80
2022-08-19T10:55:34.712Z,6.50
2022-08-19T10:58:04.623Z,7.30
2022-08-19T11:00:39.310Z,7.90
2022-08-19T11:03:19.790Z,7.20
2022-08-19T11:06:06.476Z,6.70
2022-08-19T11:08:49.145Z,6.90
2022-08-19T11:11:22.612Z,5.20
2022-08-19T11:13:52.545Z,6.10
2022-08-19T11:16:27.930Z,7.40
2022-08-19T11:19:00.524Z,6.50
2022-08-19T11:21:36.693Z,4.80
2022-08-19T11:24:13.553Z,5.00
2022-08-19T11:27:10.426Z,5.20
2022-08-19T11:29:40.447Z,5.20
2022-08-19T11:32:14.300Z,5.20
2022-08-19T11:34:45.578Z,5.90
2022-08-19T11:37:17.061Z,5.20
2022-08-19T11:39:49.289Z,5.80
2022-08-19T11:42:44.755Z,5.00
2022-08-19T11:45:16.187Z,5.80
2022-08-19T11:47:48.858Z,5.00
2022-08-19T11:50:24.690Z,5.00
2022-08-19T11:52:58.649Z,4.60
2022-08-19T11:55:27.909Z,4.90
2022-08-19T12:00:31.978Z,4.10
2022-08-19T12:03:02.578Z,6.90
2022-08-19T12:05:43.154Z,4.80
2022-08-19T12:08:26.294Z,4.90
2022-08-19T12:10:57.924Z,4.60
2022-08-19T12:13:43.020Z,4.00
2022-08-19T12:16:34.476Z,4.40
2022-08-19T12:19:08.786Z,5.70
2022-08-19T12:21:42.555Z,4.40
2022-08-19T12:24:24.399Z,4.20
2022-08-19T12:27:00.824Z,4.60
2022-08-19T12:29:33.720Z,4.90
2022-08-19T12:32:07.432Z,4.70
2022-08-19T12:34:40.754Z,5.00
2022-08-19T12:37:13.398Z,4.40
2022-08-19T12:39:44.651Z,4.60
2022-08-19T12:42:21.735Z,4.20
2022-08-19T12:44:55.222Z,5.60
2022-08-19T12:47:34.253Z,4.90
2022-08-19T12:50:09.925Z,4.90
2022-08-19T12:52:49.952Z,4.70
2022-08-19T12:55:28.493Z,7.30
2022-08-19T12:58:27.065Z,4.60
2022-08-19T13:01:29.990Z,4.50
2022-08-19T13:04:15.698Z,4.50
2022-08-19T13:07:04.844Z,5.40
2022-08-19T13:09:41.576Z,4.90
2022-08-19T13:12:14.474Z,5.70
2022-08-19T13:17:00.060Z,4.80
2022-08-19T13:18:33.659Z,6.20
2022-08-19T13:21:14.432Z,6.00
2022-08-19T13:23:45.235Z,5.10
2022-08-19T13:26:21.081Z,4.80
2022-08-19T13:29:08.933Z,4.80
2022-08-19T13:32:05.172Z,4.40
2022-08-19T13:34:39.696Z,4.30
2022-08-19T13:37:13.511Z,6.30
2022-08-19T13:39:48.655Z,4.70
2022-08-19T13:42:25.430Z,4.20
2022-08-19T13:45:02.707Z,5.30
2022-08-19T13:47:36.403Z,5.00
2022-08-19T13:50:07.745Z,4.30
2022-08-19T13:52:37.155Z,4.40
2022-08-19T13:55:12.724Z,4.50
2022-08-19T14:00:41.248Z,4.70
2022-08-19T14:03:26.296Z,4.30
2022-08-19T14:06:01.401Z,4.90
2022-08-19T14:08:34.624Z,5.50
2022-08-19T14:11:25.849Z,4.60
2022-08-19T14:14:02.564Z,4.80
2022-08-19T14:16:36.977Z,4.40
2022-08-19T14:19:06.453Z,4.50
2022-08-19T14:21:41.528Z,4.60
2022-08-19T14:24:14.402Z,5.20
2022-08-19T14:29:15.665Z,4.40
2022-08-19T14:31:54.207Z,5.10
2022-08-19T14:34:27.681Z,4.80
2022-08-19T14:37:02.207Z,4.70
2022-08-19T14:39:41.874Z,4.70
2022-08-19T14:42:15.754Z,5.40
2022-08-19T14:44:48.413Z,5.00
2022-08-19T14:47:25.423Z,4.30
2022-08-19T14:49:59.417Z,4.70
2022-08-19T14:52:34.536Z,4.40
2022-08-19T14:55:07.900Z,5.40
2022-08-19T14:57:40.769Z,4.80
2022-08-19T15:00:25.853Z,5.10
2022-08-19T15:02:55.838Z,4.70
2022-08-19T15:05:25.282Z,4.50
2022-08-19T15:07:56.876Z,4.80
2022-08-19T15:10:26.308Z,4.80
2022-08-19T15:13:05.408Z,5.00
2022-08-19T15:15:38.286Z,5.10
2022-08-19T15:18:31.415Z,5.10
2022-08-19T15:21:08.391Z,4.90
2022-08-19T15:23:43.732Z,5.50
2022-08-19T15:26:38.328Z,5.20
2022-08-19T15:29:21.771Z,5.20
2022-08-19T15:32:06.139Z,5.80
2022-08-19T15:34:45.647Z,4.60
2022-08-19T15:37:44.761Z,6.10
2022-08-19T15:40:14.326Z,5.50
2022-08-19T15:42:54.445Z,5.60
2022-08-19T15:45:32.285Z,5.70
2022-08-19T15:48:07.347Z,5.80
2022-08-19T15:50:45.261Z,7.20
2022-08-19T15:53:19.036Z,5.40
2022-08-19T15:55:51.405Z,5.10
2022-08-19T15:58:39.561Z,5.90
2022-08-19T16:01:29.129Z,6.20
2022-08-19T16:04:22.924Z,6.40
2022-08-19T16:06:59.626Z,6.30
2022-08-19T16:09:36.047Z,5.90
2022-08-19T16:12:08.958Z,6.20
2022-08-19T16:17:12.928Z,6.00
2022-08-19T16:19:47.601Z,6.00
2022-08-19T16:22:33.327Z,6.20
2022-08-19T16:25:25.305Z,6.60
2022-08-19T16:28:33.821Z,7.00
2022-08-19T16:31:29.125Z,6.60
2022-08-19T16:34:12.958Z,6.90
2022-08-19T16:36:50.870Z,7.50
2022-08-19T16:39:25.237Z,7.10
2022-08-19T16:42:07.503Z,7.80
2022-08-19T16:44:41.795Z,7.30
2022-08-19T16:47:19.340Z,7.30
2022-08-19T16:49:55.496Z,8.60
2022-08-19T16:52:53.453Z,7.60
2022-08-19T16:55:25.678Z,7.10
2022-08-19T16:58:20.925Z,8.20
2022-08-19T17:01:25.199Z,7.70
2022-08-19T17:03:58.605Z,7.40
2022-08-19T17:06:59.408Z,7.40
2022-08-19T17:09:58.478Z,7.30
2022-08-19T17:12:44.876Z,7.10
2022-08-19T17:15:25.152Z,8.50
2022-08-19T17:18:24.227Z,9.10
2022-08-19T17:20:57.287Z,8.00
2022-08-19T17:23:43.772Z,8.00
2022-08-19T17:26:27.676Z,8.20
2022-08-19T17:29:14.271Z,8.00
2022-08-19T17:32:02.439Z,9.00
2022-08-19T17:34:36.427Z,7.60
2022-08-19T17:37:16.181Z,8.30
2022-08-19T17:39:49.646Z,7.70
2022-08-19T17:42:34.931Z,7.90
2022-08-19T17:45:08.259Z,8.50
2022-08-19T17:47:41.621Z,8.00
2022-08-19T17:50:14.913Z,7.90
2022-08-19T17:52:54.698Z,7.90
2022-08-19T17:55:32.152Z,8.70
2022-08-19T17:58:26.810Z,8.90
2022-08-19T18:01:10.006Z,10.80
2022-08-19T18:04:48.588Z,9.20
2022-08-19T18:08:01.783Z,11.10
2022-08-19T18:10:34.818Z,11.20
2022-08-19T18:13:17.882Z,10.20
2022-08-19T18:15:57.689Z,10.90
2022-08-19T18:18:42.089Z,12.10
2022-08-19T18:21:36.435Z,12.90
2022-08-19T18:24:53.198Z,13.00
2022-08-19T18:32:01.899Z,11.50
2022-08-19T18:34:42.511Z,13.00
2022-08-19T18:37:41.963Z,12.40
2022-08-19T18:41:00.123Z,12.20
2022-08-19T18:43:58.201Z,11.50
2022-08-19T18:46:56.236Z,11.50
2022-08-19T18:50:07.194Z,10.00
2022-08-19T18:53:03.400Z,10.70
2022-08-19T18:56:07.964Z,11.70
2022-08-19T18:59:10.072Z,16.30
2022-08-19T19:02:09.360Z,12.40
2022-08-19T19:05:06.869Z,9.90
2022-08-19T19:08:14.879Z,9.90
2022-08-19T19:11:28.609Z,28.40
2022-08-19T19:14:49.540Z,15.60
2022-08-19T19:17:26.227Z,11.00
2022-08-19T19:19:58.940Z,9.80
2022-08-19T19:22:31.326Z,12.80
2022-08-19T19:25:04.667Z,13.40
2022-08-19T19:27:36.914Z,19.20
2022-08-19T19:30:09.880Z,11.30
2022-08-19T19:32:40.821Z,15.10
2022-08-19T19:35:12.744Z,10.10
2022-08-19T19:37:52.680Z,11.10
2022-08-19T19:40:22.609Z,13.90
2022-08-19T19:42:52.212Z,16.30
2022-08-19T19:45:22.758Z,14.20
2022-08-19T19:47:52.134Z,11.40
2022-08-19T19:50:21.633Z,10.50
2022-08-19T19:52:50.804Z,16.30
2022-08-19T19:55:31.120Z,14.00
2022-08-19T19:58:09.436Z,12.40
2022-08-19T20:00:38.816Z,12.10
2022-08-19T20:03:10.706Z,16.10
2022-08-19T20:05:40.483Z,13.50
2022-08-19T20:08:29.362Z,11.60
2022-08-19T20:11:05.620Z,9.90
2022-08-19T20:13:40.925Z,12.00
2022-08-19T20:16:10.672Z,11.20
2022-08-19T20:18:40.384Z,11.30
2022-08-19T20:21:12.659Z,10.70
2022-08-19T20:23:41.770Z,10.30
2022-08-19T20:26:19.273Z,9.40
2022-08-19T20:29:13.431Z,9.20
2022-08-19T20:31:57.621Z,7.00
2022-08-19T20:34:29.081Z,8.90
2022-08-19T20:36:59.023Z,7.30
2022-08-19T20:39:28.296Z,21.10
2022-08-19T20:42:00.978Z,12.60
2022-08-19T20:44:30.063Z,8.20
2022-08-19T20:47:03.376Z,7.30
2022-08-19T20:49:33.214Z,11.90
2022-08-19T20:52:08.606Z,8.40
2022-08-19T20:54:37.774Z,7.90
2022-08-19T20:57:14.634Z,7.10
2022-08-19T20:59:43.756Z,9.30
2022-08-19T21:02:13.112Z,6.60
2022-08-19T21:04:43.364Z,8.80
2022-08-19T21:07:12.883Z,8.80
2022-08-19T21:09:42.264Z,7.40
2022-08-19T21:12:14.296Z,8.60
2022-08-19T21:14:47.284Z,8.30
2022-08-19T21:17:18.354Z,8.20
2022-08-19T21:19:50.385Z,8.30
2022-08-19T21:22:23.971Z,8.10
2022-08-19T21:24:53.480Z,7.50
2022-08-19T21:27:28.769Z,8.60
2022-08-19T21:29:57.914Z,8.30
2022-08-19T21:32:27.451Z,9.00
2022-08-19T21:34:57.165Z,9.00
2022-08-19T21:37:31.221Z,7.70
2022-08-19T21:40:02.360Z,8.00
2022-08-19T21:42:31.542Z,8.80
2022-08-19T21:45:04.788Z,10.20
2022-08-19T21:47:47.522Z,8.10
2022-08-19T21:50:34.785Z,9.40
2022-08-19T21:53:39.086Z,8.20
2022-08-19T21:56:08.695Z,8.70
2022-08-19T21:58:54.239Z,9.40
2022-08-19T22:01:42.778Z,9.80
2022-08-19T22:04:23.094Z,9.50
2022-08-19T22:07:19.924Z,9.40
2022-08-19T22:13:49.456Z,8.40
2022-08-19T22:17:01.923Z,8.70
2022-08-19T22:20:22.151Z,8.60
2022-08-19T22:23:31.891Z,10.20
2022-08-19T22:31:04.591Z,9.00
2022-08-19T22:38:08.834Z,8.60
2022-08-19T22:43:48.738Z,9.40
2022-08-19T22:47:22.625Z,9.60
2022-08-19T22:54:35.782Z,12.50
2022-08-19T22:57:07.148Z,11.50
2022-08-19T22:59:41.720Z,14.40
2022-08-19T23:02:30.217Z,13.10
2022-08-19T23:05:03.966Z,12.30
2022-08-19T23:07:40.231Z,12.70
2022-08-19T23:10:15.121Z,13.10
2022-08-19T23:12:59.513Z,14.10
2022-08-19T23:15:33.535Z,12.40
2022-08-19T23:18:08.256Z,10.80
2022-08-19T23:20:47.954Z,10.20
2022-08-19T23:23:20.103Z,10.90
2022-08-19T23:25:49.420Z,10.10
2022-08-19T23:28:40.673Z,11.20
2022-08-19T23:31:12.653Z,10.00
2022-08-19T23:33:51.902Z,10.20
2022-08-19T23:36:24.491Z,11.00
2022-08-19T23:38:55.082Z,13.20
2022-08-19T23:41:30.025Z,13.70
2022-08-19T23:44:05.938Z,13.90
2022-08-19T23:46:54.892Z,12.70
2022-08-19T23:49:26.116Z,13.20
2022-08-19T23:51:55.941Z,13.80
2022-08-19T23:54:42.765Z,13.70
2022-08-19T23:57:14.453Z,13.70
2022-08-19T23:59:56.218Z,12.70
